Time;durP1;ratioP1;P1;durP2;ratioP2;P2;SDS_P1;SDS_P2;PMS_P1;PMS_P2;Temp;Humidity;BMP_temperature;BMP_pressure;BME280_temperature;BME280_humidity;BME280_pressure;Samples;Min_cycle;Max_cycle;Signal;HPM_P1;HPM_P2
2022/03/22 00:00:42;;;;;;;1.92;1.83;;;9.90;99.90;;;;;;5014734;28;20197;-67
2022/03/22 00:03:09;;;;;;;2.00;1.90;;;9.80;99.90;;;;;;5017981;28;20295;-66
2022/03/22 00:05:40;;;;;;;1.80;1.70;;;9.80;99.90;;;;;;5015249;28;20260;-67
2022/03/22 00:08:07;;;;;;;1.95;1.85;;;9.70;99.90;;;;;;5015771;28;20204;-67
2022/03/22 00:10:34;;;;;;;1.97;1.87;;;9.70;99.90;;;;;;5013691;28;20259;-67
2022/03/22 00:13:03;;;;;;;1.80;1.70;;;9.70;99.90;;;;;;5016503;28;20300;-68
2022/03/22 00:15:30;;;;;;;1.80;1.70;;;9.60;99.90;;;;;;5020246;28;20236;-64
2022/03/22 00:17:57;;;;;;;2.00;1.90;;;9.60;99.90;;;;;;5030915;28;20205;-66
2022/03/22 00:20:24;;;;;;;1.87;1.77;;;9.60;99.90;;;;;;5018210;28;20202;-67
2022/03/22 00:22:52;;;;;;;2.20;2.10;;;9.60;99.90;;;;;;5017106;28;20237;-65
2022/03/22 00:25:19;;;;;;;1.87;1.77;;;9.50;99.90;;;;;;5016186;28;20261;-66
2022/03/22 00:27:57;;;;;;;2.07;1.90;;;9.40;99.90;;;;;;5013426;28;20276;-68
2022/03/22 00:30:25;;;;;;;1.83;1.73;;;9.30;99.90;;;;;;5011612;28;20694;-65
2022/03/22 00:32:54;;;;;;;2.00;1.90;;;9.30;99.90;;;;;;5017936;28;20205;-66
2022/03/22 00:35:23;;;;;;;1.80;1.70;;;9.20;99.90;;;;;;5018936;28;20303;-66
2022/03/22 00:37:53;;;;;;;1.77;1.67;;;9.20;99.90;;;;;;5017901;28;20209;-67
2022/03/22 00:40:21;;;;;;;1.93;1.83;;;9.20;99.90;;;;;;5020239;28;20237;-67
2022/03/22 00:42:52;;;;;;;1.90;1.80;;;9.10;99.90;;;;;;5016376;28;20197;-67
2022/03/22 00:45:22;;;;;;;2.27;2.13;;;9.00;99.90;;;;;;5017382;28;20225;-67
2022/03/22 00:47:51;;;;;;;2.10;2.00;;;8.90;99.90;;;;;;5016623;28;20212;-64
2022/03/22 00:50:20;;;;;;;2.00;1.90;;;8.80;99.90;;;;;;5016411;28;20206;-67
2022/03/22 00:52:47;;;;;;;2.00;1.90;;;8.80;99.90;;;;;;5016796;28;20217;-64
2022/03/22 00:55:15;;;;;;;1.90;1.80;;;8.80;99.90;;;;;;5026289;28;20330;-66
2022/03/22 00:57:43;;;;;;;1.90;1.80;;;8.70;99.90;;;;;;5021652;28;20341;-66
2022/03/22 01:00:13;;;;;;;1.90;1.73;;;8.70;99.90;;;;;;5017863;28;20583;-67
2022/03/22 01:02:42;;;;;;;2.10;2.00;;;8.70;99.90;;;;;;5015839;28;20240;-65
2022/03/22 01:05:11;;;;;;;2.00;1.90;;;8.80;99.90;;;;;;5023750;28;20298;-67
2022/03/22 01:07:39;;;;;;;2.10;2.00;;;8.50;99.90;;;;;;5020529;28;20663;-66
2022/03/22 01:10:08;;;;;;;2.07;1.97;;;8.40;99.90;;;;;;5016343;28;20197;-67
2022/03/22 01:12:37;;;;;;;2.00;1.90;;;8.30;99.90;;;;;;5016525;28;20252;-65
2022/03/22 01:15:09;;;;;;;2.30;2.10;;;8.20;99.90;;;;;;5015484;28;20316;-65
2022/03/22 01:17:36;;;;;;;2.20;2.10;;;8.10;99.90;;;;;;5015462;28;20221;-64
2022/03/22 01:20:05;;;;;;;2.13;2.03;;;8.00;99.90;;;;;;5015630;28;20288;-65
2022/03/22 01:22:32;;;;;;;1.90;1.80;;;8.00;99.90;;;;;;5020263;28;20251;-65
2022/03/22 01:24:59;;;;;;;2.40;2.20;;;7.90;99.90;;;;;;5014840;28;20229;-66
2022/03/22 01:27:26;;;;;;;1.87;1.77;;;7.90;99.90;;;;;;5018958;28;20251;-65
2022/03/22 01:29:55;;;;;;;2.00;1.90;;;7.80;99.90;;;;;;5015123;28;20634;-65
2022/03/22 01:32:22;;;;;;;1.88;1.77;;;7.70;99.90;;;;;;5016366;28;20284;-67
2022/03/22 01:34:48;;;;;;;2.00;1.90;;;7.70;99.90;;;;;;5018326;28;20211;-65
2022/03/22 01:37:15;;;;;;;1.70;1.60;;;7.70;99.90;;;;;;5014710;28;20881;-66
2022/03/22 01:39:45;;;;;;;1.90;1.80;;;7.70;99.90;;;;;;5013545;28;20235;-66
2022/03/22 01:42:12;;;;;;;1.63;1.60;;;7.70;99.90;;;;;;5014202;28;20220;-64
2022/03/22 01:44:39;;;;;;;2.17;1.95;;;7.70;99.90;;;;;;5015940;28;20197;-66
2022/03/22 01:47:08;;;;;;;1.90;1.80;;;7.60;99.90;;;;;;5019416;28;20196;-67
2022/03/22 01:49:34;;;;;;;1.87;1.77;;;7.50;99.90;;;;;;5017096;28;20674;-67
2022/03/22 01:52:04;;;;;;;2.00;1.90;;;7.40;99.90;;;;;;5014676;28;20202;-67
2022/03/22 01:54:31;;;;;;;1.93;1.83;;;7.40;99.90;;;;;;5013362;28;20201;-67
2022/03/22 01:56:58;;;;;;;2.00;1.90;;;7.40;99.90;;;;;;5017409;28;20312;-67
2022/03/22 01:59:25;;;;;;;2.10;2.00;;;7.30;99.90;;;;;;5016224;28;20212;-67
2022/03/22 02:07:23;;;;;;;1.97;1.87;;;6.90;99.90;;;;;;5021366;28;20265;-65
2022/03/22 02:09:50;;;;;;;2.00;1.90;;;6.80;99.90;;;;;;5038326;28;20212;-65
2022/03/22 02:12:17;;;;;;;2.00;1.90;;;6.80;99.90;;;;;;5031478;28;20244;-67
2022/03/22 02:14:44;;;;;;;2.00;1.90;;;6.80;99.90;;;;;;5033939;28;20210;-65
2022/03/22 02:17:11;;;;;;;2.07;1.97;;;6.70;99.90;;;;;;5033017;28;20275;-66
2022/03/22 02:19:41;;;;;;;1.90;1.80;;;6.70;99.90;;;;;;5018760;28;20300;-66
2022/03/22 02:22:11;;;;;;;1.83;1.73;;;6.60;99.90;;;;;;5021841;28;20268;-65
2022/03/22 02:24:40;;;;;;;2.10;2.00;;;6.50;99.90;;;;;;5037246;28;20258;-64
2022/03/22 02:27:08;;;;;;;2.53;1.83;;;6.50;99.90;;;;;;5025477;28;20208;-65
2022/03/22 02:29:35;;;;;;;2.00;1.90;;;6.50;99.90;;;;;;5011343;28;21167;-66
2022/03/22 02:32:02;;;;;;;1.98;1.85;;;6.50;99.90;;;;;;5017152;28;20201;-67
2022/03/22 02:34:29;;;;;;;2.13;2.03;;;6.40;99.90;;;;;;5032030;28;20243;-65
2022/03/22 02:36:56;;;;;;;1.90;1.80;;;6.40;99.90;;;;;;5033205;28;20268;-66
2022/03/22 02:39:22;;;;;;;2.00;1.90;;;6.40;99.90;;;;;;5035544;28;20722;-65
2022/03/22 02:41:52;;;;;;;2.17;2.00;;;6.40;99.90;;;;;;5033871;28;20671;-66
2022/03/22 02:44:19;;;;;;;2.27;2.17;;;6.40;99.90;;;;;;5034329;28;20204;-67
2022/03/22 02:46:46;;;;;;;1.80;1.70;;;6.30;99.90;;;;;;5033758;28;20228;-65
2022/03/22 02:49:13;;;;;;;2.00;1.90;;;6.30;99.90;;;;;;5032530;28;20207;-65
2022/03/22 02:51:41;;;;;;;2.00;1.90;;;6.20;99.90;;;;;;5032972;28;20290;-67
2022/03/22 02:54:08;;;;;;;2.00;1.90;;;6.20;99.90;;;;;;5032431;28;20714;-66
2022/03/22 02:56:35;;;;;;;1.80;1.70;;;6.10;99.90;;;;;;5032471;28;20311;-65
2022/03/22 02:59:03;;;;;;;2.00;1.80;;;6.10;99.90;;;;;;5032174;28;20300;-66
2022/03/22 03:01:32;;;;;;;2.00;1.90;;;6.10;99.90;;;;;;5031379;28;20303;-67
2022/03/22 03:03:59;;;;;;;2.00;1.90;;;6.10;99.90;;;;;;5032045;28;20274;-66
2022/03/22 03:06:29;;;;;;;2.00;1.90;;;6.10;99.90;;;;;;5032332;28;20268;-65
2022/03/22 03:08:57;;;;;;;1.90;1.80;;;6.00;99.90;;;;;;5031566;28;20204;-67
2022/03/22 03:11:24;;;;;;;1.90;1.80;;;5.90;99.90;;;;;;5032151;28;20683;-67
2022/03/22 03:16:38;;;;;;;1.83;1.73;;;5.90;99.90;;;;;;5041584;28;20231;-67
2022/03/22 03:19:05;;;;;;;1.80;1.70;;;5.90;99.90;;;;;;5052437;28;20580;-67
2022/03/22 03:21:32;;;;;;;2.05;1.90;;;5.90;99.90;;;;;;5031685;28;20295;-66
2022/03/22 03:23:59;;;;;;;2.13;1.90;;;5.90;99.90;;;;;;5031867;28;20235;-68
2022/03/22 03:26:26;;;;;;;2.10;2.00;;;5.80;99.90;;;;;;5032010;28;20312;-66
2022/03/22 03:28:53;;;;;;;2.00;1.90;;;5.80;99.90;;;;;;5031648;28;20686;-65
2022/03/22 03:31:20;;;;;;;2.00;1.90;;;5.80;99.90;;;;;;5031971;28;20791;-65
2022/03/22 03:33:48;;;;;;;2.30;2.10;;;5.70;99.90;;;;;;5031682;28;20205;-67
2022/03/22 03:36:15;;;;;;;2.00;1.90;;;5.70;99.90;;;;;;5031668;28;20777;-66
2022/03/22 03:38:42;;;;;;;2.08;1.98;;;5.70;99.90;;;;;;5031926;28;20244;-65
2022/03/22 03:43:54;;;;;;;2.17;2.08;;;5.80;99.90;;;;;;5031596;28;20187;-66
2022/03/22 03:49:07;;;;;;;1.92;1.83;;;5.80;99.90;;;;;;5031562;28;20211;-65
2022/03/22 03:51:34;;;;;;;1.90;1.80;;;5.70;99.90;;;;;;5031573;28;20678;-66
2022/03/22 03:54:01;;;;;;;1.80;1.70;;;5.60;99.90;;;;;;5031475;28;20578;-66
2022/03/22 03:56:28;;;;;;;1.90;1.80;;;5.50;99.90;;;;;;5032098;28;20629;-66
2022/03/22 03:58:56;;;;;;;1.90;1.80;;;5.50;99.90;;;;;;5031608;28;20227;-67
2022/03/22 04:01:24;;;;;;;2.00;1.90;;;5.50;99.90;;;;;;5038520;28;20208;-66
2022/03/22 04:03:51;;;;;;;2.00;1.90;;;5.40;99.90;;;;;;5038877;28;20204;-67
2022/03/22 04:06:19;;;;;;;2.00;1.90;;;5.40;99.90;;;;;;5032240;28;20236;-67
2022/03/22 04:08:46;;;;;;;1.92;1.83;;;5.40;99.90;;;;;;5031324;28;20201;-66
2022/03/22 04:11:12;;;;;;;1.95;1.85;;;5.40;99.90;;;;;;5031093;28;20208;-65
2022/03/22 04:13:40;;;;;;;2.07;1.97;;;5.50;99.90;;;;;;5035201;28;20295;-66
2022/03/22 04:16:07;;;;;;;1.98;1.88;;;5.50;99.90;;;;;;5033641;28;20605;-66
2022/03/22 04:18:34;;;;;;;2.00;1.90;;;5.50;99.90;;;;;;5035425;28;20250;-66
2022/03/22 04:21:02;;;;;;;2.10;2.00;;;5.50;99.90;;;;;;5034791;28;20309;-67
2022/03/22 04:23:30;;;;;;;2.13;2.03;;;5.50;99.90;;;;;;5034429;28;20717;-65
2022/03/22 04:25:57;;;;;;;2.00;1.90;;;5.40;99.90;;;;;;5034647;28;20225;-65
2022/03/22 04:33:52;;;;;;;2.00;1.90;;;5.40;99.90;;;;;;5034855;28;20208;-66
2022/03/22 04:36:20;;;;;;;1.67;1.58;;;5.40;99.90;;;;;;5034670;28;20308;-65
2022/03/22 04:38:48;;;;;;;1.88;1.77;;;5.30;99.90;;;;;;5048594;28;20249;-65
2022/03/22 04:41:15;;;;;;;2.00;1.90;;;5.40;99.90;;;;;;5054761;28;20667;-67
2022/03/22 04:43:42;;;;;;;1.80;1.70;;;5.30;99.90;;;;;;5056068;28;20299;-66
2022/03/22 04:46:09;;;;;;;1.80;1.70;;;5.40;99.90;;;;;;5054790;28;20757;-67
2022/03/22 04:48:36;;;;;;;2.00;1.90;;;5.40;99.90;;;;;;5037498;28;20304;-65
2022/03/22 04:56:46;;;;;;;1.90;1.80;;;5.20;99.90;;;;;;5035663;28;20302;-68
2022/03/22 04:59:14;;;;;;;1.97;1.87;;;5.30;99.90;;;;;;5034871;28;20231;-67
2022/03/22 05:01:42;;;;;;;1.92;1.80;;;5.30;99.90;;;;;;5034587;28;20683;-67
2022/03/22 05:04:10;;;;;;;2.13;2.03;;;5.10;99.90;;;;;;5035399;28;20208;-67
2022/03/22 05:06:38;;;;;;;1.70;1.60;;;5.00;99.90;;;;;;5038886;28;20324;-65
2022/03/22 05:09:07;;;;;;;2.00;1.90;;;4.90;99.90;;;;;;5034581;28;20205;-67
2022/03/22 05:11:34;;;;;;;1.83;1.73;;;4.90;99.90;;;;;;5034377;28;20209;-66
2022/03/22 05:14:01;;;;;;;1.83;1.73;;;4.90;99.90;;;;;;5039591;28;20286;-66
2022/03/22 05:16:29;;;;;;;1.83;1.73;;;4.90;99.90;;;;;;5049604;28;20789;-68
2022/03/22 05:18:57;;;;;;;2.55;1.95;;;4.90;99.90;;;;;;5035429;28;20227;-68
2022/03/22 05:21:25;;;;;;;1.90;1.80;;;5.00;99.90;;;;;;5036223;28;20756;-68
2022/03/22 05:23:52;;;;;;;2.03;1.90;;;5.00;99.90;;;;;;5034326;28;20196;-67
2022/03/22 05:26:20;;;;;;;1.98;1.88;;;5.10;99.90;;;;;;5035357;28;20324;-67
2022/03/22 05:28:47;;;;;;;1.80;1.70;;;5.10;99.90;;;;;;5029350;28;20557;-70
2022/03/22 05:31:15;;;;;;;1.92;1.70;;;5.10;99.90;;;;;;5027039;28;20200;-68
2022/03/22 05:33:42;;;;;;;2.25;2.05;;;5.20;99.90;;;;;;5034985;28;20208;-68
2022/03/22 05:36:09;;;;;;;1.92;1.83;;;5.20;99.90;;;;;;5035134;28;20232;-67
2022/03/22 05:38:36;;;;;;;1.85;1.73;;;5.10;99.90;;;;;;5022365;28;20213;-69
2022/03/22 05:41:03;;;;;;;1.80;1.70;;;5.10;99.90;;;;;;5032342;28;20721;-67
2022/03/22 05:43:32;;;;;;;1.98;1.88;;;5.10;99.90;;;;;;5016103;28;20242;-68
2022/03/22 05:45:59;;;;;;;1.67;1.57;;;5.10;99.90;;;;;;5027060;28;20697;-68
2022/03/22 05:48:26;;;;;;;2.10;1.90;;;5.10;99.90;;;;;;5039257;28;20284;-69
2022/03/22 05:50:53;;;;;;;1.50;1.40;;;5.10;99.90;;;;;;5038385;28;20204;-68
2022/03/22 05:53:20;;;;;;;1.50;1.40;;;5.20;99.90;;;;;;5036122;28;20243;-69
2022/03/22 05:55:47;;;;;;;1.80;1.70;;;5.20;99.90;;;;;;5041406;28;20228;-68
2022/03/22 05:58:14;;;;;;;1.60;1.50;;;5.30;99.90;;;;;;5042094;28;20367;-68
2022/03/22 06:00:43;;;;;;;1.50;1.50;;;5.40;99.90;;;;;;5029993;28;20267;-68
2022/03/22 06:03:10;;;;;;;1.60;1.50;;;5.40;99.90;;;;;;5032448;28;20347;-68
2022/03/22 06:05:37;;;;;;;2.15;1.73;;;5.40;99.90;;;;;;5018081;28;20718;-68
2022/03/22 06:08:05;;;;;;;1.58;1.48;;;5.50;99.90;;;;;;5033257;28;20204;-67
2022/03/22 06:10:32;;;;;;;1.75;1.65;;;5.60;99.90;;;;;;5015823;28;20213;-68
2022/03/22 06:13:00;;;;;;;1.55;1.45;;;5.60;99.90;;;;;;5035000;28;20574;-67
2022/03/22 06:15:29;;;;;;;1.40;1.40;;;5.70;99.90;;;;;;5050520;28;20216;-67
2022/03/22 06:17:59;;;;;;;1.88;1.77;;;5.70;99.90;;;;;;5047050;28;20258;-68
2022/03/22 06:20:28;;;;;;;1.70;1.60;;;5.70;99.90;;;;;;5035839;28;20229;-68
2022/03/22 06:22:56;;;;;;;1.92;1.83;;;5.60;99.90;;;;;;5034773;28;20963;-69
2022/03/22 06:25:23;;;;;;;2.13;2.03;;;5.70;99.90;;;;;;5025188;28;20259;-69
2022/03/22 06:27:52;;;;;;;1.80;1.70;;;5.70;99.90;;;;;;5023222;28;20192;-69
2022/03/22 06:30:20;;;;;;;2.08;1.95;;;5.60;99.90;;;;;;5026286;28;20219;-69
2022/03/22 06:32:48;;;;;;;2.28;2.10;;;5.70;99.90;;;;;;5028820;28;20200;-68
2022/03/22 06:35:18;;;;;;;1.67;1.57;;;5.80;99.90;;;;;;5031628;28;20225;-71
2022/03/22 06:37:45;;;;;;;1.73;1.63;;;5.80;99.90;;;;;;5028856;28;20256;-68
2022/03/22 06:40:13;;;;;;;1.70;1.60;;;5.90;99.90;;;;;;5031943;28;20340;-70
2022/03/22 06:42:41;;;;;;;1.98;1.88;;;6.00;99.90;;;;;;5031691;28;20246;-69
2022/03/22 06:45:10;;;;;;;1.75;1.65;;;6.00;99.90;;;;;;5032339;28;20679;-67
2022/03/22 06:47:39;;;;;;;1.70;1.60;;;6.10;99.90;;;;;;5029791;28;20247;-69
2022/03/22 06:50:07;;;;;;;1.95;1.85;;;6.20;99.90;;;;;;5031781;28;20207;-66
2022/03/22 06:52:35;;;;;;;2.58;1.92;;;6.30;99.90;;;;;;5033911;28;20643;-69
2022/03/22 06:55:02;;;;;;;1.70;1.60;;;6.40;99.90;;;;;;5035785;28;20252;-68
2022/03/22 06:57:31;;;;;;;2.03;1.90;;;6.50;99.90;;;;;;5030997;28;20289;-68
2022/03/22 06:59:58;;;;;;;2.30;1.95;;;6.60;99.90;;;;;;5034070;28;20204;-70
2022/03/22 07:02:25;;;;;;;1.80;1.70;;;6.70;99.90;;;;;;5029096;28;20232;-69
2022/03/22 07:04:52;;;;;;;1.90;1.80;;;6.80;99.90;;;;;;5034590;28;20236;-69
2022/03/22 07:07:20;;;;;;;1.83;1.73;;;6.90;99.90;;;;;;5035735;28;20268;-69
2022/03/22 07:09:48;;;;;;;1.77;1.67;;;7.00;99.90;;;;;;5049362;28;20215;-68
2022/03/22 07:12:15;;;;;;;1.88;1.77;;;7.00;99.90;;;;;;5048448;28;20200;-69
2022/03/22 07:14:42;;;;;;;2.15;1.92;;;7.10;99.90;;;;;;5044200;28;20216;-68
2022/03/22 07:17:10;;;;;;;2.10;2.00;;;7.30;99.90;;;;;;5033161;28;20228;-68
2022/03/22 07:19:38;;;;;;;1.75;1.65;;;7.30;99.90;;;;;;5031176;28;20667;-67
2022/03/22 07:22:06;;;;;;;1.80;1.70;;;7.40;99.90;;;;;;5031295;28;20287;-66
2022/03/22 07:24:33;;;;;;;2.05;1.95;;;7.40;99.90;;;;;;5023754;28;20659;-68
2022/03/22 07:27:01;;;;;;;1.80;1.70;;;7.60;99.90;;;;;;5032308;28;20307;-68
2022/03/22 07:29:28;;;;;;;1.83;1.73;;;7.70;99.90;;;;;;5032161;28;20320;-68
2022/03/22 07:31:56;;;;;;;1.90;1.80;;;7.80;99.90;;;;;;5031257;28;20675;-68
2022/03/22 07:34:24;;;;;;;2.03;1.90;;;7.80;99.90;;;;;;5032825;28;20204;-68
2022/03/22 07:36:52;;;;;;;1.70;1.60;;;7.90;99.90;;;;;;5032363;28;20228;-67
2022/03/22 07:39:21;;;;;;;2.10;2.00;;;7.90;99.90;;;;;;5032628;28;20571;-67
2022/03/22 07:41:48;;;;;;;2.10;2.00;;;8.00;99.90;;;;;;5031945;28;20205;-68
2022/03/22 07:44:17;;;;;;;1.73;1.63;;;8.20;99.90;;;;;;5031835;28;20646;-67
2022/03/22 07:46:45;;;;;;;1.90;1.70;;;8.20;99.90;;;;;;5033694;28;20260;-68
2022/03/22 07:54:40;;;;;;;1.75;1.65;;;8.60;99.90;;;;;;5032183;28;20188;-67
2022/03/22 07:57:08;;;;;;;2.28;2.17;;;8.80;99.90;;;;;;5032507;28;20690;-69
2022/03/22 07:59:36;;;;;;;2.45;2.25;;;8.90;99.90;;;;;;5037226;28;20227;-68
2022/03/22 08:02:04;;;;;;;2.22;2.13;;;9.00;99.90;;;;;;5045031;28;20243;-68
2022/03/22 08:04:31;;;;;;;2.30;2.10;;;9.20;99.90;;;;;;5028472;28;20220;-68
2022/03/22 08:06:57;;;;;;;2.42;2.22;;;9.30;99.90;;;;;;5031224;28;20323;-68
2022/03/22 08:09:24;;;;;;;2.00;1.90;;;9.30;99.90;;;;;;5031870;28;20200;-67
2022/03/22 08:11:51;;;;;;;2.57;2.37;;;9.40;99.90;;;;;;5033037;28;20240;-67
2022/03/22 08:14:19;;;;;;;2.33;2.23;;;9.50;99.90;;;;;;5032824;28;20240;-69
2022/03/22 08:16:47;;;;;;;2.50;2.40;;;9.60;99.90;;;;;;5032971;28;20232;-68
2022/03/22 08:19:18;;;;;;;2.70;2.50;;;9.80;99.90;;;;;;5032198;28;20224;-68
2022/03/22 08:21:45;;;;;;;2.77;2.57;;;9.90;99.90;;;;;;5041134;28;20639;-69
2022/03/22 08:24:12;;;;;;;2.43;2.33;;;9.90;99.90;;;;;;5031455;28;20209;-68
2022/03/22 08:26:40;;;;;;;3.00;2.80;;;9.90;99.90;;;;;;5032098;28;20228;-68
2022/03/22 08:29:07;;;;;;;2.90;2.80;;;9.90;99.90;;;;;;5031812;28;20201;-68
2022/03/22 08:31:35;;;;;;;2.80;2.60;;;10.00;99.90;;;;;;5031342;28;20225;-67
2022/03/22 08:34:03;;;;;;;2.80;2.60;;;10.10;99.90;;;;;;5031634;28;20213;-69
2022/03/22 08:36:30;;;;;;;3.00;2.80;;;10.20;99.90;;;;;;5031714;28;20315;-68
2022/03/22 08:38:58;;;;;;;2.90;2.70;;;10.20;99.90;;;;;;5031545;28;20224;-67
2022/03/22 08:41:25;;;;;;;2.97;2.77;;;10.30;99.90;;;;;;5032110;28;20208;-69
2022/03/22 08:43:53;;;;;;;2.63;2.43;;;10.60;99.90;;;;;;5030767;28;20675;-68
2022/03/22 08:46:24;;;;;;;2.77;2.57;;;10.70;99.90;;;;;;5032173;28;20331;-68
2022/03/22 08:48:52;;;;;;;3.10;2.90;;;10.60;99.90;;;;;;5032401;28;20181;-69
2022/03/22 08:51:21;;;;;;;2.77;2.57;;;10.60;99.90;;;;;;5031483;28;20212;-67
2022/03/22 08:53:48;;;;;;;2.85;2.72;;;10.90;99.90;;;;;;5031140;28;20208;-68
2022/03/22 08:56:15;;;;;;;2.80;2.50;;;11.10;99.90;;;;;;5039990;28;20243;-67
2022/03/22 08:58:42;;;;;;;2.67;2.53;;;11.20;99.90;;;;;;5042502;28;20255;-68
2022/03/22 09:01:09;;;;;;;2.88;2.78;;;11.20;99.90;;;;;;5038607;28;20211;-69
2022/03/22 09:03:38;;;;;;;2.63;2.50;;;11.30;99.90;;;;;;5034889;28;20197;-68
2022/03/22 09:06:11;;;;;;;2.53;2.33;;;11.50;99.90;;;;;;5033570;28;20613;-68
2022/03/22 09:08:41;;;;;;;2.30;2.20;;;11.40;99.90;;;;;;5034681;28;20291;-69
2022/03/22 09:11:09;;;;;;;2.27;2.17;;;11.60;99.90;;;;;;5034019;28;20653;-67
2022/03/22 09:13:38;;;;;;;2.60;2.40;;;11.90;99.90;;;;;;5033914;28;20209;-67
2022/03/22 09:16:12;;;;;;;2.40;2.20;;;12.00;99.90;;;;;;5034288;28;20225;-68
2022/03/22 09:18:39;;;;;;;2.63;2.42;;;11.90;99.90;;;;;;5034752;28;20239;-68
2022/03/22 09:21:06;;;;;;;2.28;2.13;;;12.00;99.90;;;;;;5032168;28;20240;-68
2022/03/22 09:23:33;;;;;;;2.50;2.30;;;12.10;99.90;;;;;;5033686;28;20288;-69
2022/03/22 09:26:02;;;;;;;2.50;2.30;;;12.20;99.90;;;;;;5034087;28;20311;-68
2022/03/22 09:28:28;;;;;;;2.30;2.15;;;12.30;99.90;;;;;;5034147;28;20207;-68
2022/03/22 09:30:55;;;;;;;2.35;2.17;;;12.60;99.90;;;;;;5033794;28;20221;-68
2022/03/22 09:33:22;;;;;;;2.90;2.70;;;12.90;99.90;;;;;;5032192;28;20668;-66
2022/03/22 09:35:53;;;;;;;2.58;2.40;;;13.00;99.90;;;;;;5034889;28;20520;-69
2022/03/22 09:38:20;;;;;;;2.80;2.60;;;13.00;99.90;;;;;;5036578;28;20220;-68
2022/03/22 09:40:47;;;;;;;2.67;2.47;;;12.90;99.90;;;;;;5059164;28;20275;-67
2022/03/22 09:43:18;;;;;;;2.60;2.47;;;13.10;99.90;;;;;;5044239;28;20254;-68
2022/03/22 09:45:45;;;;;;;2.95;2.63;;;13.20;99.90;;;;;;5035693;28;20260;-68
2022/03/22 09:48:12;;;;;;;2.92;2.72;;;13.00;99.90;;;;;;5034904;28;20201;-69
2022/03/22 09:53:23;;;;;;;2.60;2.50;;;12.90;99.90;;;;;;5054186;28;20245;-68
2022/03/22 09:55:50;;;;;;;2.83;2.63;;;13.10;99.90;;;;;;5054612;28;20254;-68
2022/03/22 09:58:18;;;;;;;2.83;2.63;;;13.00;99.90;;;;;;5053415;28;20281;-68
2022/03/22 10:00:45;;;;;;;2.73;2.60;;;13.30;99.90;;;;;;5045100;28;20217;-67
2022/03/22 10:03:20;;;;;;;2.80;2.60;;;13.60;99.90;;;;;;5034894;28;20236;-69
2022/03/22 10:05:58;;;;;;;2.90;2.67;;;13.50;99.90;;;;;;5035658;28;20298;-68
2022/03/22 10:08:25;;;;;;;3.70;3.40;;;13.50;99.90;;;;;;5054696;28;20205;-69
2022/03/22 10:10:56;;;;;;;3.00;2.80;;;13.50;99.90;;;;;;5033226;28;20580;-68
2022/03/22 10:13:24;;;;;;;3.30;3.10;;;13.60;99.90;;;;;;5033686;28;20243;-68
2022/03/22 10:15:51;;;;;;;3.00;2.83;;;13.70;99.90;;;;;;5034941;28;20221;-67
2022/03/22 10:18:25;;;;;;;3.35;3.15;;;13.70;99.90;;;;;;5046359;28;20236;-68
2022/03/22 10:21:00;;;;;;;3.47;3.15;;;13.60;99.90;;;;;;5033165;28;20481;-68
2022/03/22 10:23:27;;;;;;;3.50;3.20;;;14.00;99.90;;;;;;5027845;28;20203;-68
2022/03/22 10:26:04;;;;;;;3.10;2.90;;;14.20;99.90;;;;;;5030027;28;20561;-68
2022/03/22 10:28:32;;;;;;;3.30;3.10;;;14.10;99.90;;;;;;5039043;28;20199;-68
2022/03/22 10:31:00;;;;;;;3.60;3.30;;;14.30;99.90;;;;;;5040874;28;20240;-68
2022/03/22 10:33:27;;;;;;;3.43;3.23;;;14.50;99.90;;;;;;5040203;28;20264;-68
2022/03/22 10:35:54;;;;;;;3.37;3.17;;;14.60;99.90;;;;;;5040379;28;20224;-68
2022/03/22 10:38:22;;;;;;;3.77;3.47;;;14.80;99.90;;;;;;5037517;28;20679;-68
2022/03/22 10:40:49;;;;;;;3.80;3.55;;;15.00;99.90;;;;;;5033490;28;20255;-67
2022/03/22 10:43:20;;;;;;;3.65;3.35;;;15.00;99.90;;;;;;5031177;28;20669;-68
2022/03/22 10:45:50;;;;;;;3.50;3.30;;;15.00;99.90;;;;;;5033038;28;20252;-67
2022/03/22 10:48:18;;;;;;;3.07;2.90;;;15.10;99.90;;;;;;5032560;28;20327;-69
2022/03/22 10:50:46;;;;;;;3.40;3.20;;;15.20;99.90;;;;;;5035781;28;20279;-67
2022/03/22 10:53:15;;;;;;;3.28;3.08;;;15.50;99.90;;;;;;5041530;28;20566;-69
2022/03/22 10:55:43;;;;;;;3.25;2.95;;;15.50;99.90;;;;;;5043579;28;20235;-68
2022/03/22 10:58:13;;;;;;;3.25;3.05;;;15.60;99.90;;;;;;5036391;28;20673;-70
2022/03/22 11:00:43;;;;;;;3.20;3.00;;;15.70;99.90;;;;;;5036813;28;20224;-68
2022/03/22 11:03:12;;;;;;;3.33;3.13;;;15.80;99.90;;;;;;5034761;28;20208;-68
2022/03/22 11:05:41;;;;;;;3.38;3.17;;;15.70;99.90;;;;;;5034401;28;20232;-67
2022/03/22 11:08:08;;;;;;;3.00;2.80;;;15.70;99.90;;;;;;5032657;28;20204;-69
2022/03/22 11:10:35;;;;;;;3.40;3.20;;;15.80;99.90;;;;;;5034573;28;20243;-68
2022/03/22 11:13:03;;;;;;;3.13;2.90;;;15.90;99.90;;;;;;5033107;28;20204;-68
2022/03/22 11:15:33;;;;;;;3.30;3.10;;;16.10;99.90;;;;;;5034144;28;20248;-68
2022/03/22 11:18:03;;;;;;;3.22;3.03;;;16.10;99.90;;;;;;5033754;28;20192;-68
2022/03/22 11:20:32;;;;;;;3.80;3.60;;;16.30;99.90;;;;;;5032176;28;20436;-67
2022/03/22 11:23:00;;;;;;;3.60;3.37;;;16.30;99.90;;;;;;5031645;28;20240;-68
2022/03/22 11:25:31;;;;;;;3.53;3.23;;;16.40;99.90;;;;;;5032443;28;20224;-68
2022/03/22 11:27:59;;;;;;;3.30;3.10;;;16.50;99.90;;;;;;5032126;28;20212;-68
2022/03/22 11:30:28;;;;;;;3.50;3.30;;;16.50;99.90;;;;;;5032867;28;20320;-67
2022/03/22 11:35:53;;;;;;;3.33;3.13;;;16.30;99.90;;;;;;5043817;28;20232;-67
2022/03/22 11:38:45;;;;;;;3.33;3.13;;;16.20;99.90;;;;;;5029612;28;20188;-68
2022/03/22 11:44:17;;;;;;;3.90;3.67;;;16.30;99.90;;;;;;5036870;28;20196;-68
2022/03/22 11:46:45;;;;;;;3.40;3.20;;;16.40;99.90;;;;;;5033343;28;20290;-68
2022/03/22 11:49:21;;;;;;;3.15;3.00;;;16.30;99.90;;;;;;5032814;28;20208;-70
2022/03/22 11:51:55;;;;;;;3.78;3.45;;;16.50;99.90;;;;;;5031638;28;20577;-68
2022/03/22 11:54:23;;;;;;;3.23;3.03;;;16.50;99.90;;;;;;5036433;28;20227;-68
2022/03/22 11:56:51;;;;;;;3.50;3.30;;;16.50;99.90;;;;;;5048623;28;20232;-68
2022/03/22 11:59:21;;;;;;;3.40;3.10;;;16.40;99.90;;;;;;5048565;28;20686;-68
2022/03/22 12:02:00;;;;;;;3.00;2.80;;;16.50;99.90;;;;;;5044549;28;20260;-67
2022/03/22 12:04:36;;;;;;;3.00;2.80;;;16.60;99.90;;;;;;5034222;28;20247;-66
2022/03/22 12:07:06;;;;;;;3.37;3.10;;;16.80;99.90;;;;;;5052367;28;20220;-68
2022/03/22 12:09:33;;;;;;;3.20;3.00;;;16.80;99.90;;;;;;5053406;28;20203;-67
2022/03/22 12:12:02;;;;;;;3.20;3.00;;;16.80;99.90;;;;;;5034410;28;20212;-68
2022/03/22 12:14:30;;;;;;;2.92;2.83;;;16.70;99.90;;;;;;5032638;28;20208;-67
2022/03/22 12:16:57;;;;;;;3.17;2.97;;;16.70;99.90;;;;;;5033257;28;20316;-68
2022/03/22 12:19:28;;;;;;;3.00;2.90;;;16.70;99.90;;;;;;5031297;28;20240;-68
2022/03/22 12:21:55;;;;;;;3.20;3.00;;;16.70;99.90;;;;;;5032555;28;20215;-68
2022/03/22 12:24:25;;;;;;;2.50;2.40;;;16.80;99.40;;;;;;5030993;28;20236;-68
2022/03/22 12:26:52;;;;;;;2.80;2.60;;;16.90;99.40;;;;;;5031557;28;20260;-68
2022/03/22 12:29:21;;;;;;;2.70;2.60;;;17.00;99.00;;;;;;5031750;28;20255;-66
2022/03/22 12:31:49;;;;;;;3.10;2.90;;;17.20;98.40;;;;;;5032208;28;20212;-67
2022/03/22 12:34:16;;;;;;;2.60;2.50;;;17.10;98.90;;;;;;5034073;28;20204;-68
2022/03/22 12:36:44;;;;;;;3.25;3.00;;;17.30;98.90;;;;;;5034105;28;20586;-69
2022/03/22 12:39:11;;;;;;;2.80;2.70;;;17.40;98.40;;;;;;5035115;28;20292;-67
2022/03/22 12:41:39;;;;;;;2.90;2.70;;;17.50;98.60;;;;;;5034874;28;20204;-66
2022/03/22 12:44:07;;;;;;;3.05;2.85;;;17.60;97.60;;;;;;5034991;28;20308;-66
2022/03/22 12:46:35;;;;;;;2.72;2.63;;;17.60;97.80;;;;;;5034238;28;20648;-67
2022/03/22 12:49:03;;;;;;;3.10;2.90;;;17.40;98.00;;;;;;5026828;28;20238;-68
2022/03/22 12:51:31;;;;;;;2.80;2.67;;;17.50;98.40;;;;;;5027268;28;20225;-66
2022/03/22 12:53:58;;;;;;;2.90;2.80;;;17.60;99.00;;;;;;5044777;28;20204;-68
2022/03/22 12:56:25;;;;;;;2.77;2.57;;;17.70;98.10;;;;;;5036294;28;20229;-67
2022/03/22 12:58:55;;;;;;;2.58;2.47;;;17.70;97.60;;;;;;5034582;28;20236;-68
2022/03/22 13:01:22;;;;;;;2.85;2.65;;;17.70;96.10;;;;;;5034251;28;20235;-67
2022/03/22 13:03:50;;;;;;;2.58;2.47;;;17.50;95.60;;;;;;5034462;28;20291;-69
2022/03/22 13:06:17;;;;;;;2.67;2.50;;;17.40;95.60;;;;;;5034597;28;20363;-67
2022/03/22 13:11:30;;;;;;;2.72;2.60;;;17.60;96.40;;;;;;5023085;28;20188;-68
2022/03/22 13:16:41;;;;;;;2.35;2.17;;;17.70;95.30;;;;;;4971977;28;20221;-66
2022/03/22 13:19:09;;;;;;;2.50;2.30;;;17.70;94.20;;;;;;5021056;28;20218;-67
2022/03/22 13:21:40;;;;;;;2.87;2.50;;;17.80;94.60;;;;;;5028892;28;20240;-67
2022/03/22 13:24:11;;;;;;;2.55;2.35;;;17.70;94.60;;;;;;5037690;28;20231;-72
2022/03/22 13:26:39;;;;;;;2.63;2.42;;;17.90;95.30;;;;;;5042273;28;20299;-69
2022/03/22 13:29:15;;;;;;;2.22;2.13;;;17.90;94.90;;;;;;5031390;28;20211;-68
2022/03/22 13:31:53;;;;;;;2.13;2.03;;;18.00;94.10;;;;;;5029792;28;20200;-68
2022/03/22 13:34:22;;;;;;;2.10;2.00;;;18.00;93.90;;;;;;5025128;28;20239;-67
2022/03/22 13:36:49;;;;;;;2.75;2.30;;;18.10;94.10;;;;;;5034534;28;20224;-66
2022/03/22 13:39:23;;;;;;;2.70;2.50;;;18.10;93.60;;;;;;5033948;28;20240;-67
2022/03/22 13:41:50;;;;;;;2.43;2.33;;;18.20;93.30;;;;;;5033592;28;20303;-66